Time;durP1;ratioP1;P1;durP2;ratioP2;P2;SDS_P1;SDS_P2;PMS_P1;PMS_P2;Temp;Humidity;BMP_temperature;BMP_pressure;BME280_temperature;BME280_humidity;BME280_pressure;Samples;Min_cycle;Max_cycle;Signal;HPM_P1;HPM_P2
2023/09/22 00:00:59;;;;;;;2.22;0.82;;;16.10;99.90;;;;;;5056152;28;20235;-39
2023/09/22 00:03:26;;;;;;;1.37;0.90;;;16.20;99.90;;;;;;5038368;28;20184;-41
2023/09/22 00:05:52;;;;;;;1.60;0.83;;;16.10;99.90;;;;;;5040131;28;20174;-41
2023/09/22 00:08:19;;;;;;;1.73;0.70;;;16.20;99.90;;;;;;5039688;28;20212;-41
2023/09/22 00:10:45;;;;;;;1.20;0.70;;;16.20;99.90;;;;;;5054315;28;20200;-40
2023/09/22 00:13:11;;;;;;;2.80;0.88;;;16.20;99.90;;;;;;5033475;28;20235;-40
2023/09/22 00:15:37;;;;;;;1.02;0.85;;;16.30;99.90;;;;;;5042776;28;20178;-41
2023/09/22 00:18:03;;;;;;;1.53;0.70;;;16.20;99.90;;;;;;5043813;28;20205;-40
2023/09/22 00:20:30;;;;;;;2.67;0.90;;;16.20;99.90;;;;;;5031240;28;20186;-42
2023/09/22 00:22:56;;;;;;;1.90;0.90;;;16.20;99.90;;;;;;5038725;28;20181;-41
2023/09/22 00:25:22;;;;;;;1.63;0.90;;;16.10;99.90;;;;;;5047803;28;20243;-39
2023/09/22 00:27:48;;;;;;;1.20;0.80;;;16.10;99.90;;;;;;5034396;28;20258;-40
2023/09/22 00:30:14;;;;;;;1.35;0.82;;;16.00;99.90;;;;;;5054320;28;20261;-40
2023/09/22 00:32:41;;;;;;;1.73;1.10;;;16.00;99.90;;;;;;5038018;28;20185;-41
2023/09/22 00:35:10;;;;;;;1.83;0.80;;;16.00;99.90;;;;;;5038573;28;20189;-40
2023/09/22 00:37:36;;;;;;;2.35;1.00;;;16.00;99.90;;;;;;5039222;28;20240;-42
2023/09/22 00:40:02;;;;;;;1.67;0.70;;;16.00;99.90;;;;;;5038809;28;20181;-39
2023/09/22 00:42:28;;;;;;;2.30;0.73;;;16.00;99.90;;;;;;5035848;28;20194;-41
2023/09/22 00:44:54;;;;;;;1.77;1.00;;;16.00;99.90;;;;;;5055035;28;20173;-41
2023/09/22 00:47:20;;;;;;;1.43;0.90;;;16.00;99.90;;;;;;5039228;28;20184;-40
2023/09/22 00:49:48;;;;;;;1.50;1.00;;;15.90;99.90;;;;;;5038790;28;20181;-40
2023/09/22 00:52:16;;;;;;;1.13;0.70;;;15.80;99.90;;;;;;5041174;28;20185;-40
2023/09/22 00:54:42;;;;;;;2.17;1.10;;;15.80;99.90;;;;;;5037956;28;20209;-41
2023/09/22 00:57:10;;;;;;;0.80;0.80;;;15.80;99.90;;;;;;5039233;28;20280;-41
2023/09/22 00:59:35;;;;;;;1.13;1.00;;;15.70;99.90;;;;;;5058801;28;20197;-39
2023/09/22 01:02:02;;;;;;;2.13;0.83;;;15.70;99.90;;;;;;5038528;28;20200;-41
2023/09/22 01:04:29;;;;;;;1.55;0.77;;;15.80;99.90;;;;;;5037268;28;20181;-40
2023/09/22 01:06:56;;;;;;;1.75;0.90;;;15.70;99.90;;;;;;5036405;28;20236;-41
2023/09/22 01:09:22;;;;;;;0.93;0.83;;;15.70;99.90;;;;;;5038160;28;20213;-40
2023/09/22 01:11:48;;;;;;;1.63;0.97;;;15.80;99.90;;;;;;5034361;28;20193;-39
2023/09/22 01:14:13;;;;;;;0.95;0.88;;;15.80;99.90;;;;;;5031826;28;20186;-40
2023/09/22 01:16:41;;;;;;;1.20;0.87;;;15.80;99.90;;;;;;5055272;28;20276;-40
2023/09/22 01:19:16;;;;;;;1.30;1.00;;;15.90;99.90;;;;;;5052218;28;20223;-41
2023/09/22 01:21:49;;;;;;;1.47;0.90;;;15.90;99.90;;;;;;5044314;28;20188;-40
2023/09/22 01:24:15;;;;;;;1.97;1.00;;;15.90;99.90;;;;;;5036537;28;20201;-40
2023/09/22 01:26:41;;;;;;;1.47;0.83;;;15.90;99.90;;;;;;5046844;28;20208;-40
2023/09/22 01:29:08;;;;;;;0.77;0.70;;;15.90;99.90;;;;;;5030235;28;20209;-40
2023/09/22 01:31:35;;;;;;;1.30;1.00;;;15.90;99.90;;;;;;5030606;28;20197;-39
2023/09/22 01:34:02;;;;;;;1.57;1.00;;;15.90;99.90;;;;;;5037455;28;20181;-40
2023/09/22 01:36:29;;;;;;;3.53;0.90;;;15.90;99.90;;;;;;5038507;28;20185;-41
2023/09/22 01:38:58;;;;;;;1.00;0.83;;;16.00;99.90;;;;;;5037276;28;20224;-40
2023/09/22 01:41:24;;;;;;;1.30;0.90;;;16.00;99.90;;;;;;5035899;28;20217;-40
2023/09/22 01:43:50;;;;;;;2.23;0.93;;;16.00;99.90;;;;;;5035683;28;20185;-39
2023/09/22 01:46:16;;;;;;;2.37;0.83;;;16.00;99.90;;;;;;5034963;28;20261;-40
2023/09/22 01:48:41;;;;;;;3.10;0.83;;;16.00;99.90;;;;;;5043351;28;20311;-39
2023/09/22 01:51:07;;;;;;;1.73;1.08;;;16.00;99.90;;;;;;5038105;28;20190;-40
2023/09/22 01:53:35;;;;;;;2.27;0.90;;;16.00;99.90;;;;;;5036957;28;20181;-41
2023/09/22 01:56:01;;;;;;;2.33;0.85;;;16.00;99.90;;;;;;5037772;28;20186;-40
2023/09/22 01:58:26;;;;;;;4.70;1.03;;;16.00;99.90;;;;;;5037660;28;20209;-39
2023/09/22 02:00:53;;;;;;;2.20;1.00;;;16.00;99.90;;;;;;5037065;28;20192;-39
2023/09/22 02:03:18;;;;;;;1.00;0.77;;;15.90;99.90;;;;;;5036938;28;20188;-39
2023/09/22 02:05:45;;;;;;;1.00;0.90;;;15.90;99.90;;;;;;5037023;28;20204;-41
2023/09/22 02:08:11;;;;;;;1.30;0.95;;;15.90;99.90;;;;;;5028994;28;20209;-39
2023/09/22 02:10:37;;;;;;;1.13;0.77;;;15.80;99.90;;;;;;5037397;28;20185;-41
2023/09/22 02:13:05;;;;;;;1.10;1.02;;;15.80;99.90;;;;;;5036577;28;20224;-41
2023/09/22 02:15:30;;;;;;;3.63;1.10;;;15.70;99.90;;;;;;5036313;28;20213;-41
2023/09/22 02:17:56;;;;;;;1.70;1.00;;;15.70;99.90;;;;;;5037523;28;20243;-42
2023/09/22 02:20:22;;;;;;;1.10;0.80;;;15.70;99.90;;;;;;5036812;28;20198;-40
2023/09/22 02:22:50;;;;;;;1.10;0.90;;;15.80;99.90;;;;;;5053052;28;20173;-41
2023/09/22 02:25:19;;;;;;;1.50;0.70;;;15.70;99.90;;;;;;5058636;28;20263;-40
2023/09/22 02:27:47;;;;;;;3.07;1.07;;;15.80;99.90;;;;;;5039298;28;20207;-41
2023/09/22 02:30:14;;;;;;;1.23;0.90;;;15.80;99.90;;;;;;5037146;28;20189;-38
2023/09/22 02:32:42;;;;;;;1.33;0.80;;;15.80;99.90;;;;;;5033839;28;20182;-40
2023/09/22 02:35:08;;;;;;;1.60;0.80;;;15.80;99.90;;;;;;5029893;28;20182;-40
2023/09/22 02:37:35;;;;;;;2.00;1.10;;;15.70;99.90;;;;;;5034605;28;20354;-40
2023/09/22 02:40:03;;;;;;;2.20;1.00;;;15.70;99.90;;;;;;5036612;28;20184;-39
2023/09/22 02:42:29;;;;;;;2.00;1.13;;;15.70;99.90;;;;;;5025037;28;20302;-40
2023/09/22 02:44:55;;;;;;;1.67;0.77;;;15.60;99.90;;;;;;5034782;28;20205;-41
2023/09/22 02:47:21;;;;;;;1.47;0.90;;;15.60;99.90;;;;;;5031928;28;20180;-41
2023/09/22 02:49:47;;;;;;;2.00;1.17;;;15.60;99.90;;;;;;5033800;28;20293;-38
2023/09/22 02:52:14;;;;;;;1.27;0.93;;;15.60;99.90;;;;;;5034794;28;20196;-38
2023/09/22 02:54:40;;;;;;;1.13;0.97;;;15.60;99.90;;;;;;5036463;28;20181;-42
2023/09/22 02:57:06;;;;;;;1.20;1.00;;;15.60;99.90;;;;;;5036472;28;20296;-42
2023/09/22 02:59:32;;;;;;;1.73;1.00;;;15.60;99.90;;;;;;5053656;28;20260;-41
2023/09/22 03:01:58;;;;;;;1.07;0.97;;;15.60;99.90;;;;;;5053398;28;20272;-42
2023/09/22 03:04:24;;;;;;;1.43;0.93;;;15.60;99.90;;;;;;5030033;28;20646;-41
2023/09/22 03:06:50;;;;;;;1.97;0.83;;;15.60;99.90;;;;;;5039218;28;20186;-42
2023/09/22 03:09:17;;;;;;;1.73;0.90;;;15.50;99.90;;;;;;5033038;28;20193;-40
2023/09/22 03:11:43;;;;;;;2.30;1.17;;;15.50;99.90;;;;;;5035713;28;20185;-40
2023/09/22 03:14:10;;;;;;;2.33;1.00;;;15.50;99.90;;;;;;5032249;28;20638;-40
2023/09/22 03:16:36;;;;;;;3.40;1.00;;;15.40;99.90;;;;;;5038377;28;20186;-41
2023/09/22 03:19:02;;;;;;;1.97;1.17;;;15.50;99.90;;;;;;5034139;28;20320;-40
2023/09/22 03:21:28;;;;;;;1.20;1.10;;;15.50;99.90;;;;;;5033292;28;20249;-41
2023/09/22 03:23:54;;;;;;;2.30;1.00;;;15.50;99.90;;;;;;5035409;28;20187;-40
2023/09/22 03:26:21;;;;;;;2.17;0.90;;;15.50;99.90;;;;;;5035030;28;20182;-42
2023/09/22 03:28:48;;;;;;;2.70;1.10;;;15.50;99.90;;;;;;5035345;28;20266;-40
2023/09/22 03:31:16;;;;;;;2.53;1.27;;;15.50;99.90;;;;;;5036539;28;20181;-39
2023/09/22 03:33:46;;;;;;;2.33;1.00;;;15.40;99.90;;;;;;5035827;28;20189;-41
2023/09/22 03:36:13;;;;;;;1.63;1.17;;;15.40;99.90;;;;;;5043842;28;20181;-39
2023/09/22 03:38:41;;;;;;;2.00;1.10;;;15.40;99.90;;;;;;5036187;28;20274;-41
2023/09/22 03:41:07;;;;;;;1.17;1.00;;;15.40;99.90;;;;;;5035853;28;20215;-41
2023/09/22 03:43:34;;;;;;;1.03;0.93;;;15.40;99.90;;;;;;5030564;28;20211;-40
2023/09/22 03:46:01;;;;;;;2.40;1.10;;;15.40;99.90;;;;;;5035739;28;20276;-40
2023/09/22 03:48:26;;;;;;;2.07;1.13;;;15.40;99.90;;;;;;5040432;28;20197;-41
2023/09/22 03:50:55;;;;;;;1.20;1.10;;;15.40;99.90;;;;;;5030628;28;20188;-41
2023/09/22 03:53:22;;;;;;;2.67;1.10;;;15.30;99.90;;;;;;5035554;28;20185;-40
2023/09/22 03:55:49;;;;;;;1.90;1.00;;;15.40;99.90;;;;;;5036169;28;20213;-40
2023/09/22 03:58:17;;;;;;;3.73;1.40;;;15.40;99.90;;;;;;5035368;28;20235;-41
2023/09/22 04:00:43;;;;;;;1.30;1.10;;;15.40;99.90;;;;;;5035542;28;20185;-39
2023/09/22 04:03:09;;;;;;;2.77;1.40;;;15.40;99.90;;;;;;5035277;28;20173;-39
2023/09/22 04:05:40;;;;;;;1.10;0.93;;;15.40;99.90;;;;;;5032736;28;20178;-41
2023/09/22 04:08:11;;;;;;;1.53;1.20;;;15.40;99.90;;;;;;5054418;28;20284;-41
2023/09/22 04:10:42;;;;;;;1.30;1.20;;;15.40;99.90;;;;;;5027807;28;20251;-40
2023/09/22 04:13:12;;;;;;;1.47;1.03;;;15.40;99.90;;;;;;5023203;28;20260;-41
2023/09/22 04:15:47;;;;;;;2.47;1.20;;;15.40;99.90;;;;;;5038998;28;20246;-41
2023/09/22 04:18:21;;;;;;;4.07;1.20;;;15.20;99.90;;;;;;5051666;28;20223;-41
2023/09/22 04:20:51;;;;;;;2.33;1.07;;;15.10;99.90;;;;;;5055298;28;20285;-40
2023/09/22 04:23:17;;;;;;;1.80;1.00;;;15.10;99.90;;;;;;5028559;28;20181;-42
2023/09/22 04:25:42;;;;;;;2.00;0.90;;;15.10;99.90;;;;;;5033442;28;20193;-40
2023/09/22 04:28:11;;;;;;;1.47;1.10;;;15.10;99.90;;;;;;5034097;28;20205;-38
2023/09/22 04:30:43;;;;;;;1.17;1.00;;;15.10;99.90;;;;;;5042827;28;20186;-40
2023/09/22 04:33:11;;;;;;;3.10;1.10;;;15.00;99.90;;;;;;5053663;28;20224;-41
2023/09/22 04:35:37;;;;;;;1.77;1.10;;;14.90;99.90;;;;;;5037992;28;20193;-40
2023/09/22 04:38:04;;;;;;;1.30;1.20;;;14.80;99.90;;;;;;5034969;28;20224;-42
2023/09/22 04:40:36;;;;;;;1.67;1.00;;;14.90;99.90;;;;;;5033289;28;20189;-40
2023/09/22 04:43:08;;;;;;;1.07;0.93;;;14.80;99.90;;;;;;5027281;28;20185;-41
2023/09/22 04:45:41;;;;;;;3.00;1.10;;;14.80;99.90;;;;;;5055226;28;20216;-40
2023/09/22 04:48:08;;;;;;;1.67;1.30;;;14.90;99.90;;;;;;5038183;28;20203;-42
2023/09/22 04:50:34;;;;;;;2.50;1.17;;;14.90;99.90;;;;;;5036508;28;20185;-40
2023/09/22 04:53:00;;;;;;;3.03;1.30;;;14.90;99.90;;;;;;5047137;28;20268;-39
2023/09/22 04:55:29;;;;;;;2.10;1.10;;;14.90;99.90;;;;;;5029273;28;20253;-41
2023/09/22 04:57:56;;;;;;;1.73;1.30;;;14.90;99.90;;;;;;5030879;28;20217;-40
2023/09/22 05:00:24;;;;;;;3.23;1.20;;;15.00;99.90;;;;;;5029784;28;20197;-42
2023/09/22 05:03:07;;;;;;;3.40;1.00;;;15.00;99.90;;;;;;5039167;28;20230;-40
2023/09/22 05:05:39;;;;;;;2.67;1.20;;;15.00;99.90;;;;;;5055152;28;20633;-42
2023/09/22 05:08:07;;;;;;;3.23;1.30;;;15.00;99.90;;;;;;5056282;28;20289;-40
2023/09/22 05:10:34;;;;;;;3.57;1.33;;;15.00;99.90;;;;;;5043290;28;20193;-41
2023/09/22 05:13:00;;;;;;;1.93;1.00;;;14.90;99.90;;;;;;5048050;28;20652;-42
2023/09/22 05:15:26;;;;;;;2.50;1.07;;;14.90;99.90;;;;;;5063419;28;20191;-42
2023/09/22 05:17:52;;;;;;;3.23;1.00;;;14.80;99.90;;;;;;5046641;28;20209;-43
2023/09/22 05:20:20;;;;;;;1.47;1.10;;;14.80;99.90;;;;;;5039966;28;20182;-42
2023/09/22 05:22:45;;;;;;;1.47;1.10;;;14.80;99.90;;;;;;5063009;28;20235;-42
2023/09/22 05:25:13;;;;;;;1.50;0.93;;;14.80;99.90;;;;;;5044533;28;20653;-42
2023/09/22 05:27:41;;;;;;;1.00;0.80;;;14.90;99.90;;;;;;5045223;28;20201;-42
2023/09/22 05:30:09;;;;;;;3.23;1.03;;;14.90;99.90;;;;;;5032453;28;20276;-42
2023/09/22 05:32:35;;;;;;;1.50;1.20;;;14.90;99.90;;;;;;5033145;28;20193;-42
2023/09/22 05:35:01;;;;;;;1.83;0.93;;;14.90;99.90;;;;;;5053065;28;20268;-42
2023/09/22 05:37:27;;;;;;;2.07;1.10;;;14.80;99.90;;;;;;5032660;28;20201;-42
2023/09/22 05:39:53;;;;;;;1.80;1.27;;;14.80;99.90;;;;;;5053131;28;20181;-42
2023/09/22 05:42:19;;;;;;;1.20;1.10;;;14.80;99.90;;;;;;5044683;28;20192;-43
2023/09/22 05:44:46;;;;;;;2.17;1.00;;;14.80;99.90;;;;;;5033799;28;20186;-42
2023/09/22 05:47:12;;;;;;;1.47;1.00;;;14.80;99.90;;;;;;5041002;28;20202;-42
2023/09/22 05:49:38;;;;;;;2.40;1.30;;;14.80;99.90;;;;;;5041811;28;20216;-42
2023/09/22 05:52:04;;;;;;;1.37;1.13;;;14.90;99.90;;;;;;5043085;28;20186;-42
2023/09/22 05:54:30;;;;;;;2.23;0.90;;;14.90;99.90;;;;;;5047273;28;20181;-40
2023/09/22 05:56:56;;;;;;;1.20;0.80;;;14.90;99.90;;;;;;5046636;28;20200;-41
2023/09/22 05:59:26;;;;;;;2.17;0.87;;;14.90;99.90;;;;;;5062753;28;20213;-41
2023/09/22 06:01:53;;;;;;;1.10;1.00;;;14.90;99.90;;;;;;5045525;28;20249;-39
2023/09/22 06:04:18;;;;;;;1.53;1.00;;;15.00;99.90;;;;;;5045724;28;20180;-42
2023/09/22 06:06:45;;;;;;;1.37;1.13;;;15.00;99.90;;;;;;5046617;28;20180;-40
2023/09/22 06:09:12;;;;;;;2.83;1.20;;;15.00;99.90;;;;;;5039676;28;20201;-40
2023/09/22 06:11:40;;;;;;;1.20;1.10;;;15.00;99.90;;;;;;5021988;28;20240;-42
2023/09/22 06:14:07;;;;;;;1.50;1.40;;;15.00;99.90;;;;;;5035816;28;20240;-41
2023/09/22 06:16:33;;;;;;;1.83;1.20;;;15.10;99.90;;;;;;5037466;28;20194;-41
2023/09/22 06:19:00;;;;;;;1.33;1.23;;;15.10;99.90;;;;;;5037122;28;20267;-42
2023/09/22 06:21:27;;;;;;;1.13;1.03;;;15.10;99.90;;;;;;5055612;28;20198;-42
2023/09/22 06:23:53;;;;;;;2.97;1.47;;;15.10;99.90;;;;;;5037721;28;20230;-42
2023/09/22 06:26:20;;;;;;;1.70;1.20;;;15.10;99.90;;;;;;5050130;28;20192;-42
2023/09/22 06:28:46;;;;;;;1.67;1.23;;;15.10;99.90;;;;;;5040365;28;20201;-40
2023/09/22 06:31:12;;;;;;;2.23;1.00;;;15.10;99.90;;;;;;5039660;28;20173;-41
2023/09/22 06:33:39;;;;;;;3.00;1.17;;;15.10;99.90;;;;;;5038203;28;20189;-40
2023/09/22 06:36:05;;;;;;;1.13;1.03;;;15.10;99.90;;;;;;5031333;28;20182;-40
2023/09/22 06:38:35;;;;;;;1.50;1.10;;;15.20;99.90;;;;;;5045904;28;20212;-42
2023/09/22 06:41:01;;;;;;;1.20;0.90;;;15.20;99.90;;;;;;5031496;28;20185;-40
2023/09/22 06:43:29;;;;;;;2.43;1.17;;;15.30;99.90;;;;;;5031210;28;20185;-42
2023/09/22 06:45:58;;;;;;;2.00;1.20;;;15.30;99.90;;;;;;5031739;28;20178;-40
2023/09/22 06:48:29;;;;;;;2.77;1.20;;;15.40;99.90;;;;;;5028749;28;20335;-40
2023/09/22 06:50:59;;;;;;;1.60;1.33;;;15.40;99.90;;;;;;5045316;28;20276;-41
2023/09/22 06:53:26;;;;;;;1.20;1.10;;;15.40;99.90;;;;;;5041009;28;20193;-40
2023/09/22 06:56:08;;;;;;;1.80;1.17;;;15.40;99.90;;;;;;5040235;28;20201;-40
2023/09/22 06:58:40;;;;;;;2.27;1.30;;;15.30;99.90;;;;;;5030430;28;20300;-42
2023/09/22 07:01:10;;;;;;;1.37;1.23;;;15.30;99.90;;;;;;5047130;28;20183;-40
2023/09/22 07:03:39;;;;;;;3.80;1.10;;;15.40;99.90;;;;;;5042953;28;20185;-42
2023/09/22 07:06:08;;;;;;;3.20;1.30;;;15.40;99.90;;;;;;5057225;28;20190;-42
2023/09/22 07:08:43;;;;;;;5.13;1.13;;;15.40;99.90;;;;;;5043800;28;20215;-42
2023/09/22 07:11:10;;;;;;;2.27;1.40;;;15.50;99.90;;;;;;5042042;28;20181;-42
2023/09/22 07:13:37;;;;;;;1.57;1.10;;;15.50;99.90;;;;;;5045166;28;20176;-42
2023/09/22 07:16:04;;;;;;;1.83;1.00;;;15.50;99.90;;;;;;5044357;28;20182;-42
2023/09/22 07:18:30;;;;;;;2.80;1.10;;;15.50;99.90;;;;;;5043568;28;20201;-42
2023/09/22 07:20:56;;;;;;;1.20;1.00;;;15.60;99.90;;;;;;5051005;28;20184;-42
2023/09/22 07:23:25;;;;;;;3.73;1.30;;;15.60;99.90;;;;;;5043329;28;20177;-42
2023/09/22 07:26:01;;;;;;;3.13;1.07;;;15.50;99.90;;;;;;5044749;28;20268;-42
2023/09/22 07:28:28;;;;;;;2.63;1.10;;;15.50;99.90;;;;;;5060503;28;20201;-42
2023/09/22 07:30:54;;;;;;;2.37;0.90;;;15.50;99.90;;;;;;5045139;28;20184;-42
2023/09/22 07:33:21;;;;;;;2.07;0.80;;;15.40;99.90;;;;;;5045646;28;20181;-42
2023/09/22 07:35:50;;;;;;;1.20;1.00;;;15.40;99.90;;;;;;5056658;28;20184;-42
2023/09/22 07:38:18;;;;;;;1.03;0.93;;;15.50;99.90;;;;;;5044526;28;20216;-42
2023/09/22 07:40:44;;;;;;;3.03;1.10;;;15.40;99.90;;;;;;5045747;28;20183;-42
2023/09/22 07:43:10;;;;;;;1.40;1.00;;;15.50;99.90;;;;;;5044683;28;20185;-42
2023/09/22 07:45:36;;;;;;;1.00;0.80;;;15.50;99.90;;;;;;5043329;28;20211;-42
2023/09/22 07:48:02;;;;;;;0.90;0.80;;;15.50;99.90;;;;;;5045465;28;20197;-42
2023/09/22 07:50:29;;;;;;;2.80;0.77;;;15.50;99.90;;;;;;5045416;28;20182;-42
2023/09/22 07:52:56;;;;;;;1.83;1.00;;;15.50;99.90;;;;;;5043509;28;20188;-42
2023/09/22 07:55:24;;;;;;;2.80;1.03;;;15.50;99.90;;;;;;5045228;28;20234;-40
2023/09/22 07:57:51;;;;;;;1.97;0.90;;;15.50;99.90;;;;;;5044168;28;20216;-45
2023/09/22 08:00:18;;;;;;;1.27;1.00;;;15.50;99.90;;;;;;5044707;28;20188;-41
2023/09/22 08:02:47;;;;;;;1.57;1.07;;;15.60;99.90;;;;;;5043653;28;20185;-42
2023/09/22 08:05:16;;;;;;;3.60;1.40;;;15.70;99.90;;;;;;5042653;28;20184;-40
2023/09/22 08:07:47;;;;;;;2.80;1.20;;;15.70;99.90;;;;;;5059756;28;20224;-43
2023/09/22 08:10:13;;;;;;;3.57;1.20;;;15.80;99.90;;;;;;5042164;28;20224;-43
2023/09/22 08:12:46;;;;;;;1.93;1.00;;;15.90;99.90;;;;;;5045337;28;20191;-41
2023/09/22 08:15:14;;;;;;;3.17;1.10;;;16.00;99.90;;;;;;5061823;28;20263;-40
2023/09/22 08:17:41;;;;;;;3.07;1.10;;;16.10;99.90;;;;;;5049002;28;20208;-42
2023/09/22 08:20:11;;;;;;;1.45;1.00;;;16.10;99.90;;;;;;5057522;28;20294;-42
2023/09/22 08:22:38;;;;;;;2.20;0.87;;;16.20;99.90;;;;;;5051752;28;20178;-42
2023/09/22 08:25:08;;;;;;;2.38;1.10;;;16.30;99.90;;;;;;5028362;28;20244;-43
2023/09/22 08:27:35;;;;;;;2.42;1.00;;;16.40;99.90;;;;;;5031513;28;20196;-43
2023/09/22 08:30:10;;;;;;;1.87;0.90;;;16.40;99.90;;;;;;5024822;28;20185;-43
2023/09/22 08:32:42;;;;;;;2.80;0.95;;;16.50;99.90;;;;;;5030976;28;20178;-43
2023/09/22 08:35:10;;;;;;;2.87;0.80;;;16.50;99.90;;;;;;5033419;28;20236;-43
2023/09/22 08:37:40;;;;;;;2.37;0.90;;;16.40;99.90;;;;;;5047175;28;20213;-43
2023/09/22 08:40:11;;;;;;;2.70;0.88;;;16.40;99.90;;;;;;5034946;28;20169;-43
2023/09/22 08:42:38;;;;;;;1.42;0.88;;;16.40;99.90;;;;;;5029196;28;20181;-43
2023/09/22 08:45:08;;;;;;;2.67;0.88;;;16.30;99.90;;;;;;5049389;28;20182;-43
2023/09/22 08:47:39;;;;;;;5.35;1.00;;;16.30;99.90;;;;;;5046605;28;20182;-43
2023/09/22 08:50:12;;;;;;;3.10;1.48;;;16.30;99.90;;;;;;5033348;28;20212;-43
2023/09/22 08:52:43;;;;;;;4.50;0.90;;;16.30;99.90;;;;;;5032516;28;20192;-42
2023/09/22 08:55:14;;;;;;;3.35;0.90;;;16.30;99.90;;;;;;5030740;28;20192;-41
2023/09/22 08:57:44;;;;;;;1.23;0.82;;;16.40;99.90;;;;;;5046393;28;20279;-42
2023/09/22 09:00:23;;;;;;;2.23;0.90;;;16.20;99.90;;;;;;5033368;28;20181;-41
2023/09/22 09:02:55;;;;;;;3.77;0.70;;;16.10;99.90;;;;;;5028933;28;20231;-42
2023/09/22 09:05:34;;;;;;;2.80;0.90;;;16.10;99.90;;;;;;5033049;28;20260;-43
2023/09/22 09:08:11;;;;;;;1.00;0.90;;;16.10;99.90;;;;;;5032509;28;20207;-42
2023/09/22 09:10:40;;;;;;;0.90;0.82;;;16.00;99.90;;;;;;5034734;28;20177;-42
2023/09/22 09:13:07;;;;;;;1.43;0.70;;;16.10;99.90;;;;;;5022568;28;20272;-40
2023/09/22 09:15:50;;;;;;;1.17;0.70;;;16.10;99.90;;;;;;5031226;28;20185;-42
2023/09/22 09:18:19;;;;;;;3.97;1.10;;;16.00;99.90;;;;;;5035733;28;20209;-42
2023/09/22 09:20:48;;;;;;;1.73;0.93;;;16.00;99.90;;;;;;5037106;28;20178;-43
2023/09/22 09:23:19;;;;;;;1.40;0.83;;;16.10;99.90;;;;;;5029959;28;20178;-42
2023/09/22 09:25:54;;;;;;;2.33;0.90;;;16.10;99.90;;;;;;5031764;28;20177;-42
2023/09/22 09:28:21;;;;;;;2.63;0.90;;;16.20;99.90;;;;;;5030341;28;20677;-42
2023/09/22 09:30:52;;;;;;;0.87;0.63;;;16.10;99.90;;;;;;5029721;28;20192;-42
2023/09/22 09:33:30;;;;;;;1.10;0.70;;;16.20;99.90;;;;;;5027512;28;20166;-42
2023/09/22 09:35:56;;;;;;;0.85;0.77;;;16.30;99.90;;;;;;5044547;28;20181;-42
2023/09/22 09:38:28;;;;;;;1.95;0.90;;;16.30;99.90;;;;;;5032502;28;20247;-42
2023/09/22 09:40:55;;;;;;;2.17;0.70;;;16.30;99.90;;;;;;5027961;28;20175;-42
2023/09/22 09:43:22;;;;;;;1.27;0.80;;;16.30;99.90;;;;;;5028590;28;20200;-42
2023/09/22 09:45:59;;;;;;;0.85;0.80;;;16.30;99.90;;;;;;5046768;28;20176;-42
2023/09/22 09:48:26;;;;;;;1.27;0.93;;;16.40;99.90;;;;;;5035826;28;20494;-42
2023/09/22 09:50:54;;;;;;;1.08;0.60;;;16.30;99.90;;;;;;5037752;28;20185;-42
2023/09/22 09:53:57;;;;;;;0.50;0.50;;;16.30;99.90;;;;;;5037901;28;20178;-42
2023/09/22 09:56:26;;;;;;;0.73;0.63;;;16.30;99.90;;;;;;4988224;28;20206;-42
2023/09/22 09:58:53;;;;;;;0.60;0.60;;;16.40;99.90;;;;;;5018331;28;20328;-42
2023/09/22 10:01:19;;;;;;;0.70;0.50;;;16.40;99.90;;;;;;5032417;28;20188;-42
2023/09/22 10:03:46;;;;;;;0.85;0.52;;;16.40;99.90;;;;;;5046027;28;20276;-42
2023/09/22 10:06:13;;;;;;;0.73;0.70;;;16.40;99.90;;;;;;5032061;28;20184;-42
2023/09/22 10:08:41;;;;;;;1.00;0.77;;;16.60;99.90;;;;;;5040075;28;20211;-42
2023/09/22 10:11:11;;;;;;;1.57;0.60;;;16.60;99.90;;;;;;5043352;28;20177;-40
2023/09/22 10:13:38;;;;;;;2.28;0.73;;;16.60;99.90;;;;;;5030837;28;20218;-42
2023/09/22 10:16:11;;;;;;;1.05;0.60;;;16.70;99.90;;;;;;5029661;28;20173;-42
2023/09/22 10:18:47;;;;;;;2.15;0.63;;;16.80;99.90;;;;;;5028992;28;20244;-42
2023/09/22 10:21:49;;;;;;;1.70;0.80;;;17.10;99.90;;;;;;5030761;28;20196;-43
2023/09/22 10:24:26;;;;;;;1.33;0.73;;;17.20;99.90;;;;;;5050045;28;20176;-42
2023/09/22 10:27:03;;;;;;;1.35;0.70;;;17.20;99.90;;;;;;5028360;28;20306;-42
2023/09/22 10:29:35;;;;;;;3.17;0.73;;;17.20;99.90;;;;;;5038873;28;20198;-42
2023/09/22 10:32:16;;;;;;;0.88;0.50;;;17.20;99.90;;;;;;5040159;28;20181;-42
2023/09/22 10:34:53;;;;;;;1.50;0.85;;;17.30;99.90;;;;;;5032171;28;20193;-41
2023/09/22 10:37:21;;;;;;;1.30;0.55;;;17.40;99.90;;;;;;5052314;28;20201;-42
2023/09/22 10:39:58;;;;;;;1.40;0.73;;;17.30;99.90;;;;;;5048135;28;20173;-42
2023/09/22 10:42:26;;;;;;;2.38;0.60;;;17.40;99.90;;;;;;5035850;28;20287;-42
2023/09/22 10:44:58;;;;;;;1.33;0.70;;;17.50;99.90;;;;;;5028816;28;20275;-42
2023/09/22 10:47:27;;;;;;;1.50;0.80;;;17.60;99.90;;;;;;5036928;28;20189;-42
2023/09/22 10:49:53;;;;;;;0.90;0.70;;;17.80;99.90;;;;;;5030821;28;20181;-42
2023/09/22 10:52:19;;;;;;;2.20;0.70;;;17.80;99.90;;;;;;5025293;28;20259;-41
2023/09/22 10:54:45;;;;;;;2.10;0.75;;;17.80;99.90;;;;;;5027695;28;20185;-42
2023/09/22 10:57:27;;;;;;;1.70;0.60;;;17.80;99.90;;;;;;5026186;28;20210;-42
2023/09/22 10:59:55;;;;;;;1.10;0.55;;;17.80;99.90;;;;;;5025066;28;20181;-42
2023/09/22 11:02:26;;;;;;;1.83;0.77;;;17.90;99.90;;;;;;5030121;28;20189;-42
2023/09/22 11:04:53;;;;;;;1.35;0.88;;;18.10;99.90;;;;;;5030108;28;20272;-41
2023/09/22 11:07:35;;;;;;;1.95;0.82;;;18.20;99.90;;;;;;5032983;28;20204;-42
2023/09/22 11:10:02;;;;;;;0.90;0.70;;;18.30;99.90;;;;;;5040903;28;20295;-42
2023/09/22 11:12:28;;;;;;;1.50;1.08;;;18.40;99.90;;;;;;5035276;28;20181;-42
2023/09/22 11:14:55;;;;;;;3.35;0.90;;;18.40;99.90;;;;;;5031595;28;20177;-42
2023/09/22 11:17:21;;;;;;;1.55;0.80;;;18.20;99.90;;;;;;5038665;28;20248;-43
2023/09/22 11:19:53;;;;;;;2.42;0.93;;;18.30;99.90;;;;;;5053338;28;20174;-42
2023/09/22 11:22:23;;;;;;;1.90;1.00;;;18.30;99.90;;;;;;5036358;28;20184;-42
2023/09/22 11:24:49;;;;;;;1.45;0.98;;;18.10;99.90;;;;;;5036611;28;20181;-42
2023/09/22 11:27:15;;;;;;;2.05;0.80;;;18.20;99.90;;;;;;5036551;28;20181;-42
2023/09/22 11:29:41;;;;;;;1.80;0.90;;;18.30;99.90;;;;;;5036220;28;20209;-42
2023/09/22 11:32:08;;;;;;;1.70;1.02;;;18.40;99.90;;;;;;5036557;28;20192;-42
2023/09/22 11:34:44;;;;;;;2.28;0.93;;;18.40;99.90;;;;;;5052984;28;20189;-42
2023/09/22 11:37:10;;;;;;;1.98;1.00;;;18.50;99.90;;;;;;5036440;28;20212;-42
2023/09/22 11:39:36;;;;;;;3.00;1.00;;;18.70;99.90;;;;;;5051752;28;20201;-42
2023/09/22 11:42:04;;;;;;;2.72;1.23;;;18.60;99.90;;;;;;5049986;28;20185;-42
2023/09/22 11:44:30;;;;;;;1.70;1.20;;;18.70;99.90;;;;;;5030800;28;20271;-42
2023/09/22 11:46:56;;;;;;;0.77;0.70;;;18.90;99.90;;;;;;5041268;28;20230;-42
2023/09/22 11:49:22;;;;;;;1.77;0.88;;;18.90;99.90;;;;;;5032146;28;20225;-42
2023/09/22 11:51:54;;;;;;;2.30;0.80;;;19.00;99.90;;;;;;5051849;28;20205;-42
2023/09/22 11:54:24;;;;;;;2.25;0.93;;;18.90;99.90;;;;;;5052407;28;20173;-40
2023/09/22 11:56:57;;;;;;;1.85;0.90;;;18.80;99.90;;;;;;5035231;28;20268;-42
2023/09/22 11:59:29;;;;;;;1.58;0.77;;;18.90;99.90;;;;;;5037846;28;20212;-41
2023/09/22 12:01:56;;;;;;;1.90;0.93;;;18.90;99.90;;;;;;5036102;28;20186;-42
2023/09/22 12:04:22;;;;;;;3.30;1.05;;;19.00;99.90;;;;;;5034716;28;20177;-42
2023/09/22 12:06:51;;;;;;;1.77;0.90;;;19.10;99.90;;;;;;5052461;28;20173;-42
2023/09/22 12:09:18;;;;;;;2.42;0.80;;;19.20;99.90;;;;;;5030737;28;20230;-43
2023/09/22 12:11:45;;;;;;;2.42;1.05;;;19.10;99.90;;;;;;5030780;28;20181;-42
2023/09/22 12:14:11;;;;;;;1.80;0.80;;;19.20;99.90;;;;;;5038366;28;20201;-42
2023/09/22 12:16:40;;;;;;;2.97;1.02;;;19.20;99.90;;;;;;5028991;28;20185;-42
2023/09/22 12:19:08;;;;;;;3.05;1.10;;;19.30;99.90;;;;;;5030551;28;20205;-42
2023/09/22 12:21:34;;;;;;;2.33;1.00;;;19.30;99.90;;;;;;5030087;28;20264;-42
2023/09/22 12:24:01;;;;;;;2.60;0.80;;;19.30;99.90;;;;;;5046830;28;20185;-41
2023/09/22 12:26:28;;;;;;;2.63;0.90;;;19.50;99.90;;;;;;5031875;28;20229;-40
2023/09/22 12:28:54;;;;;;;2.17;1.10;;;19.70;99.90;;;;;;5041357;28;20205;-42
2023/09/22 12:31:20;;;;;;;1.80;0.90;;;19.70;99.90;;;;;;5026896;28;20213;-41
2023/09/22 12:33:47;;;;;;;2.78;1.00;;;19.50;99.90;;;;;;5028051;28;20185;-39
2023/09/22 12:36:14;;;;;;;3.03;1.30;;;19.70;99.90;;;;;;5036495;28;20656;-40
2023/09/22 12:38:45;;;;;;;1.98;1.02;;;19.70;99.90;;;;;;5026862;28;20217;-42
2023/09/22 12:41:15;;;;;;;1.88;1.00;;;19.60;99.90;;;;;;5032870;28;20253;-41
2023/09/22 12:43:45;;;;;;;2.55;1.30;;;19.80;99.90;;;;;;5046835;28;20197;-41
2023/09/22 12:46:14;;;;;;;1.17;0.88;;;19.90;99.90;;;;;;5031475;28;20193;-39
2023/09/22 12:48:42;;;;;;;1.90;0.90;;;19.80;99.90;;;;;;5033520;28;20197;-41
2023/09/22 12:51:11;;;;;;;2.20;1.02;;;19.90;99.90;;;;;;5030736;28;20194;-41
2023/09/22 12:53:38;;;;;;;1.95;1.05;;;20.00;99.90;;;;;;5047115;28;20182;-43